sensor_id;sensor_type;location;lat;lon;timestamp;P1;durP1;ratioP1;P2;durP2;ratioP2
15132;SDS011;7667;51.232;17.110;2022-10-24T00:01:25;16.37;;;12.23;;
15132;SDS011;7667;51.232;17.110;2022-10-24T00:03:52;11.77;;;9.57;;
15132;SDS011;7667;51.232;17.110;2022-10-24T00:06:20;11.30;;;8.00;;
15132;SDS011;7667;51.232;17.110;2022-10-24T00:08:48;10.43;;;7.60;;
15132;SDS011;7667;51.232;17.110;2022-10-24T00:11:21;11.00;;;7.30;;
15132;SDS011;7667;51.232;17.110;2022-10-24T00:13:52;8.70;;;7.00;;
15132;SDS011;7667;51.232;17.110;2022-10-24T00:16:22;10.97;;;7.70;;
15132;SDS011;7667;51.232;17.110;2022-10-24T00:18:50;12.60;;;8.27;;
15132;SDS011;7667;51.232;17.110;2022-10-24T00:21:17;10.77;;;7.23;;
15132;SDS011;7667;51.232;17.110;2022-10-24T00:23:45;12.03;;;7.90;;
15132;SDS011;7667;51.232;17.110;2022-10-24T00:26:13;10.00;;;7.87;;
15132;SDS011;7667;51.232;17.110;2022-10-24T00:28:42;9.97;;;7.73;;
15132;SDS011;7667;51.232;17.110;2022-10-24T00:31:14;11.60;;;7.83;;
15132;SDS011;7667;51.232;17.110;2022-10-24T00:33:44;11.67;;;7.93;;
15132;SDS011;7667;51.232;17.110;2022-10-24T00:36:13;10.47;;;7.53;;
15132;SDS011;7667;51.232;17.110;2022-10-24T00:38:44;10.43;;;7.97;;
15132;SDS011;7667;51.232;17.110;2022-10-24T00:41:20;9.77;;;7.70;;
15132;SDS011;7667;51.232;17.110;2022-10-24T00:49:56;12.53;;;8.17;;
15132;SDS011;7667;51.232;17.110;2022-10-24T00:52:39;9.97;;;8.00;;
15132;SDS011;7667;51.232;17.110;2022-10-24T00:55:10;10.53;;;8.57;;
15132;SDS011;7667;51.232;17.110;2022-10-24T00:57:42;11.20;;;7.73;;
15132;SDS011;7667;51.232;17.110;2022-10-24T01:00:16;8.67;;;7.77;;
15132;SDS011;7667;51.232;17.110;2022-10-24T01:02:51;10.03;;;7.87;;
15132;SDS011;7667;51.232;17.110;2022-10-24T01:05:19;11.37;;;8.50;;
15132;SDS011;7667;51.232;17.110;2022-10-24T01:10:46;11.27;;;7.97;;
15132;SDS011;7667;51.232;17.110;2022-10-24T01:22:07;10.73;;;8.10;;
15132;SDS011;7667;51.232;17.110;2022-10-24T01:27:38;11.47;;;7.47;;
15132;SDS011;7667;51.232;17.110;2022-10-24T01:30:29;10.73;;;8.60;;
15132;SDS011;7667;51.232;17.110;2022-10-24T01:33:06;11.43;;;8.33;;
15132;SDS011;7667;51.232;17.110;2022-10-24T01:36:07;10.97;;;8.37;;
15132;SDS011;7667;51.232;17.110;2022-10-24T01:38:45;11.50;;;8.23;;
15132;SDS011;7667;51.232;17.110;2022-10-24T01:41:18;10.53;;;8.20;;
15132;SDS011;7667;51.232;17.110;2022-10-24T01:43:51;13.63;;;8.70;;
15132;SDS011;7667;51.232;17.110;2022-10-24T01:46:44;10.93;;;7.87;;
15132;SDS011;7667;51.232;17.110;2022-10-24T01:49:23;11.33;;;8.43;;
15132;SDS011;7667;51.232;17.110;2022-10-24T01:51:58;10.83;;;7.67;;
15132;SDS011;7667;51.232;17.110;2022-10-24T01:54:30;10.37;;;8.10;;
15132;SDS011;7667;51.232;17.110;2022-10-24T01:57:00;11.67;;;7.67;;
15132;SDS011;7667;51.232;17.110;2022-10-24T02:04:45;9.50;;;8.40;;
15132;SDS011;7667;51.232;17.110;2022-10-24T02:07:17;11.43;;;8.60;;
15132;SDS011;7667;51.232;17.110;2022-10-24T02:09:49;9.70;;;8.30;;
15132;SDS011;7667;51.232;17.110;2022-10-24T02:12:24;12.00;;;9.67;;
15132;SDS011;7667;51.232;17.110;2022-10-24T02:14:55;11.50;;;8.53;;
15132;SDS011;7667;51.232;17.110;2022-10-24T02:17:32;10.13;;;8.30;;
15132;SDS011;7667;51.232;17.110;2022-10-24T02:19:59;10.20;;;8.03;;
15132;SDS011;7667;51.232;17.110;2022-10-24T02:25:29;10.73;;;8.87;;
15132;SDS011;7667;51.232;17.110;2022-10-24T02:28:03;10.70;;;8.53;;
15132;SDS011;7667;51.232;17.110;2022-10-24T02:31:06;11.67;;;8.57;;
15132;SDS011;7667;51.232;17.110;2022-10-24T02:33:36;9.80;;;7.87;;
15132;SDS011;7667;51.232;17.110;2022-10-24T02:36:07;13.63;;;8.67;;
15132;SDS011;7667;51.232;17.110;2022-10-24T02:38:38;10.20;;;8.77;;
15132;SDS011;7667;51.232;17.110;2022-10-24T02:41:11;10.57;;;8.33;;
15132;SDS011;7667;51.232;17.110;2022-10-24T02:43:44;10.93;;;9.20;;
15132;SDS011;7667;51.232;17.110;2022-10-24T02:46:14;9.50;;;8.50;;
15132;SDS011;7667;51.232;17.110;2022-10-24T02:48:46;9.70;;;8.53;;
15132;SDS011;7667;51.232;17.110;2022-10-24T02:51:26;12.53;;;9.10;;
15132;SDS011;7667;51.232;17.110;2022-10-24T02:53:59;11.43;;;9.50;;
15132;SDS011;7667;51.232;17.110;2022-10-24T02:56:28;10.93;;;8.80;;
15132;SDS011;7667;51.232;17.110;2022-10-24T02:58:56;13.20;;;9.50;;
15132;SDS011;7667;51.232;17.110;2022-10-24T03:01:24;12.47;;;10.10;;
15132;SDS011;7667;51.232;17.110;2022-10-24T03:03:52;15.47;;;11.30;;
15132;SDS011;7667;51.232;17.110;2022-10-24T03:06:19;13.57;;;10.37;;
15132;SDS011;7667;51.232;17.110;2022-10-24T03:08:46;14.13;;;10.00;;
15132;SDS011;7667;51.232;17.110;2022-10-24T03:11:14;13.57;;;10.30;;
15132;SDS011;7667;51.232;17.110;2022-10-24T03:13:42;12.80;;;9.00;;
15132;SDS011;7667;51.232;17.110;2022-10-24T03:16:09;9.40;;;8.27;;
15132;SDS011;7667;51.232;17.110;2022-10-24T03:18:39;11.17;;;8.73;;
15132;SDS011;7667;51.232;17.110;2022-10-24T03:21:07;11.10;;;8.97;;
15132;SDS011;7667;51.232;17.110;2022-10-24T03:23:34;11.93;;;8.87;;
15132;SDS011;7667;51.232;17.110;2022-10-24T03:26:02;10.20;;;8.10;;
15132;SDS011;7667;51.232;17.110;2022-10-24T03:28:29;10.13;;;7.80;;
15132;SDS011;7667;51.232;17.110;2022-10-24T03:30:57;9.03;;;7.53;;
15132;SDS011;7667;51.232;17.110;2022-10-24T03:33:24;8.03;;;7.10;;
15132;SDS011;7667;51.232;17.110;2022-10-24T03:35:52;10.67;;;8.47;;
15132;SDS011;7667;51.232;17.110;2022-10-24T03:38:20;11.20;;;9.23;;
15132;SDS011;7667;51.232;17.110;2022-10-24T03:40:49;9.70;;;8.70;;
15132;SDS011;7667;51.232;17.110;2022-10-24T03:43:17;10.83;;;8.80;;
15132;SDS011;7667;51.232;17.110;2022-10-24T03:45:44;12.33;;;8.97;;
15132;SDS011;7667;51.232;17.110;2022-10-24T03:48:12;10.20;;;9.10;;
15132;SDS011;7667;51.232;17.110;2022-10-24T03:50:40;10.37;;;8.70;;
15132;SDS011;7667;51.232;17.110;2022-10-24T03:53:07;32.47;;;21.77;;
15132;SDS011;7667;51.232;17.110;2022-10-24T03:55:35;41.73;;;26.07;;
15132;SDS011;7667;51.232;17.110;2022-10-24T03:58:03;21.97;;;14.83;;
15132;SDS011;7667;51.232;17.110;2022-10-24T04:00:31;12.77;;;10.13;;
15132;SDS011;7667;51.232;17.110;2022-10-24T04:03:04;11.27;;;9.07;;
15132;SDS011;7667;51.232;17.110;2022-10-24T04:05:33;11.43;;;9.20;;
15132;SDS011;7667;51.232;17.110;2022-10-24T04:08:00;10.97;;;9.20;;
15132;SDS011;7667;51.232;17.110;2022-10-24T04:10:28;12.37;;;9.20;;
15132;SDS011;7667;51.232;17.110;2022-10-24T04:12:56;35.17;;;23.93;;
15132;SDS011;7667;51.232;17.110;2022-10-24T04:15:23;21.57;;;15.47;;
15132;SDS011;7667;51.232;17.110;2022-10-24T04:17:51;22.97;;;17.07;;
15132;SDS011;7667;51.232;17.110;2022-10-24T04:20:18;18.53;;;13.73;;
15132;SDS011;7667;51.232;17.110;2022-10-24T04:22:48;14.00;;;11.07;;
15132;SDS011;7667;51.232;17.110;2022-10-24T04:25:16;11.87;;;9.60;;
15132;SDS011;7667;51.232;17.110;2022-10-24T04:27:44;11.70;;;9.10;;
15132;SDS011;7667;51.232;17.110;2022-10-24T04:30:12;9.37;;;8.07;;
15132;SDS011;7667;51.232;17.110;2022-10-24T04:32:42;10.23;;;8.00;;
15132;SDS011;7667;51.232;17.110;2022-10-24T04:35:10;9.50;;;8.20;;
15132;SDS011;7667;51.232;17.110;2022-10-24T04:37:39;10.30;;;8.27;;
15132;SDS011;7667;51.232;17.110;2022-10-24T04:40:07;9.03;;;7.30;;
15132;SDS011;7667;51.232;17.110;2022-10-24T04:42:35;10.13;;;8.30;;
15132;SDS011;7667;51.232;17.110;2022-10-24T04:45:03;9.27;;;7.47;;
15132;SDS011;7667;51.232;17.110;2022-10-24T04:47:31;9.73;;;8.07;;
15132;SDS011;7667;51.232;17.110;2022-10-24T04:49:58;10.53;;;9.00;;
15132;SDS011;7667;51.232;17.110;2022-10-24T04:52:26;11.43;;;9.50;;
15132;SDS011;7667;51.232;17.110;2022-10-24T04:54:53;9.77;;;8.40;;
15132;SDS011;7667;51.232;17.110;2022-10-24T04:57:21;9.87;;;7.77;;
15132;SDS011;7667;51.232;17.110;2022-10-24T04:59:49;14.63;;;8.63;;
15132;SDS011;7667;51.232;17.110;2022-10-24T05:02:16;9.90;;;8.87;;
15132;SDS011;7667;51.232;17.110;2022-10-24T05:04:44;11.30;;;8.70;;
15132;SDS011;7667;51.232;17.110;2022-10-24T05:07:11;10.40;;;8.43;;
15132;SDS011;7667;51.232;17.110;2022-10-24T05:09:38;10.80;;;9.53;;
15132;SDS011;7667;51.232;17.110;2022-10-24T05:12:06;11.50;;;10.30;;
15132;SDS011;7667;51.232;17.110;2022-10-24T05:14:33;12.03;;;9.20;;
15132;SDS011;7667;51.232;17.110;2022-10-24T05:17:01;9.63;;;8.20;;
15132;SDS011;7667;51.232;17.110;2022-10-24T05:19:28;10.27;;;7.90;;
15132;SDS011;7667;51.232;17.110;2022-10-24T05:21:56;9.80;;;8.60;;
15132;SDS011;7667;51.232;17.110;2022-10-24T05:24:23;10.83;;;8.67;;
15132;SDS011;7667;51.232;17.110;2022-10-24T05:26:51;11.23;;;8.77;;
15132;SDS011;7667;51.232;17.110;2022-10-24T05:29:18;9.83;;;8.83;;
15132;SDS011;7667;51.232;17.110;2022-10-24T05:31:46;11.03;;;9.57;;
15132;SDS011;7667;51.232;17.110;2022-10-24T05:34:13;10.13;;;9.03;;
15132;SDS011;7667;51.232;17.110;2022-10-24T05:36:41;10.10;;;8.47;;
15132;SDS011;7667;51.232;17.110;2022-10-24T05:39:08;9.40;;;8.37;;
15132;SDS011;7667;51.232;17.110;2022-10-24T05:41:36;13.73;;;9.77;;
15132;SDS011;7667;51.232;17.110;2022-10-24T05:44:06;16.13;;;11.60;;
15132;SDS011;7667;51.232;17.110;2022-10-24T05:46:35;15.23;;;11.27;;
15132;SDS011;7667;51.232;17.110;2022-10-24T05:49:02;12.90;;;10.43;;
15132;SDS011;7667;51.232;17.110;2022-10-24T05:51:31;16.83;;;10.40;;
15132;SDS011;7667;51.232;17.110;2022-10-24T05:53:59;13.83;;;10.50;;
15132;SDS011;7667;51.232;17.110;2022-10-24T05:56:26;14.30;;;10.23;;
15132;SDS011;7667;51.232;17.110;2022-10-24T05:58:55;14.70;;;10.80;;
15132;SDS011;7667;51.232;17.110;2022-10-24T06:01:23;18.70;;;11.40;;
15132;SDS011;7667;51.232;17.110;2022-10-24T06:03:50;15.67;;;11.30;;
15132;SDS011;7667;51.232;17.110;2022-10-24T06:06:18;12.47;;;9.90;;
15132;SDS011;7667;51.232;17.110;2022-10-24T06:08:45;13.73;;;10.87;;
15132;SDS011;7667;51.232;17.110;2022-10-24T06:11:13;14.93;;;11.33;;
15132;SDS011;7667;51.232;17.110;2022-10-24T06:13:41;14.63;;;11.20;;
15132;SDS011;7667;51.232;17.110;2022-10-24T06:16:08;13.13;;;10.40;;
15132;SDS011;7667;51.232;17.110;2022-10-24T06:18:37;13.33;;;9.70;;
15132;SDS011;7667;51.232;17.110;2022-10-24T06:21:06;13.57;;;9.80;;
15132;SDS011;7667;51.232;17.110;2022-10-24T06:23:35;13.30;;;9.67;;
15132;SDS011;7667;51.232;17.110;2022-10-24T06:26:05;13.07;;;9.90;;
15132;SDS011;7667;51.232;17.110;2022-10-24T06:28:36;15.53;;;10.17;;
15132;SDS011;7667;51.232;17.110;2022-10-24T06:31:04;14.77;;;9.97;;
15132;SDS011;7667;51.232;17.110;2022-10-24T06:33:33;12.43;;;9.70;;
15132;SDS011;7667;51.232;17.110;2022-10-24T06:36:02;11.97;;;9.60;;
15132;SDS011;7667;51.232;17.110;2022-10-24T06:38:33;15.87;;;9.37;;
15132;SDS011;7667;51.232;17.110;2022-10-24T06:41:08;11.07;;;9.13;;
15132;SDS011;7667;51.232;17.110;2022-10-24T06:43:39;12.87;;;9.63;;
15132;SDS011;7667;51.232;17.110;2022-10-24T06:46:08;11.67;;;9.00;;
15132;SDS011;7667;51.232;17.110;2022-10-24T06:48:39;12.00;;;9.13;;
15132;SDS011;7667;51.232;17.110;2022-10-24T06:51:07;9.50;;;7.37;;
15132;SDS011;7667;51.232;17.110;2022-10-24T06:53:35;9.33;;;7.17;;
15132;SDS011;7667;51.232;17.110;2022-10-24T06:56:03;10.23;;;7.97;;
15132;SDS011;7667;51.232;17.110;2022-10-24T06:58:32;10.33;;;7.63;;
15132;SDS011;7667;51.232;17.110;2022-10-24T07:03:38;8.53;;;7.63;;
15132;SDS011;7667;51.232;17.110;2022-10-24T07:06:07;8.97;;;7.33;;
15132;SDS011;7667;51.232;17.110;2022-10-24T07:08:46;11.83;;;8.40;;
15132;SDS011;7667;51.232;17.110;2022-10-24T07:11:14;9.97;;;8.60;;
15132;SDS011;7667;51.232;17.110;2022-10-24T07:13:41;9.23;;;8.07;;
15132;SDS011;7667;51.232;17.110;2022-10-24T07:16:09;11.23;;;8.67;;
15132;SDS011;7667;51.232;17.110;2022-10-24T07:18:37;16.83;;;10.03;;
15132;SDS011;7667;51.232;17.110;2022-10-24T07:21:05;15.33;;;10.13;;
15132;SDS011;7667;51.232;17.110;2022-10-24T07:23:44;16.00;;;9.33;;
15132;SDS011;7667;51.232;17.110;2022-10-24T07:26:13;12.23;;;7.97;;
15132;SDS011;7667;51.232;17.110;2022-10-24T07:28:42;10.57;;;7.10;;
15132;SDS011;7667;51.232;17.110;2022-10-24T07:31:12;8.93;;;6.33;;
15132;SDS011;7667;51.232;17.110;2022-10-24T07:33:43;12.10;;;8.07;;
15132;SDS011;7667;51.232;17.110;2022-10-24T07:36:14;9.97;;;6.80;;
15132;SDS011;7667;51.232;17.110;2022-10-24T07:38:46;7.87;;;5.93;;
15132;SDS011;7667;51.232;17.110;2022-10-24T07:41:16;7.70;;;5.87;;
15132;SDS011;7667;51.232;17.110;2022-10-24T07:43:44;10.30;;;6.50;;
15132;SDS011;7667;51.232;17.110;2022-10-24T07:46:13;8.37;;;6.27;;
15132;SDS011;7667;51.232;17.110;2022-10-24T07:48:42;8.50;;;6.20;;
15132;SDS011;7667;51.232;17.110;2022-10-24T07:51:13;10.23;;;6.27;;
15132;SDS011;7667;51.232;17.110;2022-10-24T07:53:41;8.23;;;6.03;;
15132;SDS011;7667;51.232;17.110;2022-10-24T07:56:10;7.60;;;6.03;;
15132;SDS011;7667;51.232;17.110;2022-10-24T07:58:41;8.10;;;5.10;;
15132;SDS011;7667;51.232;17.110;2022-10-24T08:01:12;7.17;;;4.80;;
15132;SDS011;7667;51.232;17.110;2022-10-24T08:03:48;5.83;;;3.80;;
15132;SDS011;7667;51.232;17.110;2022-10-24T08:06:17;4.37;;;3.83;;
15132;SDS011;7667;51.232;17.110;2022-10-24T08:08:48;4.27;;;3.80;;
15132;SDS011;7667;51.232;17.110;2022-10-24T08:11:17;5.40;;;3.93;;
15132;SDS011;7667;51.232;17.110;2022-10-24T08:13:50;5.17;;;3.83;;
15132;SDS011;7667;51.232;17.110;2022-10-24T08:16:20;4.17;;;3.63;;
15132;SDS011;7667;51.232;17.110;2022-10-24T08:18:49;3.87;;;3.40;;
15132;SDS011;7667;51.232;17.110;2022-10-24T08:21:19;4.43;;;3.23;;
15132;SDS011;7667;51.232;17.110;2022-10-24T08:23:49;5.17;;;3.43;;
15132;SDS011;7667;51.232;17.110;2022-10-24T08:26:19;6.40;;;3.67;;
15132;SDS011;7667;51.232;17.110;2022-10-24T08:28:49;4.90;;;3.33;;
15132;SDS011;7667;51.232;17.110;2022-10-24T08:31:18;5.37;;;3.70;;
15132;SDS011;7667;51.232;17.110;2022-10-24T08:33:50;4.20;;;3.23;;
15132;SDS011;7667;51.232;17.110;2022-10-24T08:36:25;4.37;;;2.83;;
15132;SDS011;7667;51.232;17.110;2022-10-24T08:38:57;4.07;;;2.80;;
15132;SDS011;7667;51.232;17.110;2022-10-24T08:47:20;3.47;;;2.60;;
15132;SDS011;7667;51.232;17.110;2022-10-24T08:52:53;4.07;;;3.00;;
15132;SDS011;7667;51.232;17.110;2022-10-24T08:58:17;2.83;;;2.53;;
15132;SDS011;7667;51.232;17.110;2022-10-24T09:00:55;2.80;;;2.40;;
15132;SDS011;7667;51.232;17.110;2022-10-24T09:03:31;4.20;;;2.70;;
15132;SDS011;7667;51.232;17.110;2022-10-24T09:06:23;2.80;;;2.40;;
15132;SDS011;7667;51.232;17.110;2022-10-24T09:08:55;4.13;;;2.50;;
15132;SDS011;7667;51.232;17.110;2022-10-24T09:11:43;4.43;;;2.30;;
15132;SDS011;7667;51.232;17.110;2022-10-24T09:14:19;4.80;;;3.27;;
15132;SDS011;7667;51.232;17.110;2022-10-24T09:17:09;4.00;;;2.57;;
15132;SDS011;7667;51.232;17.110;2022-10-24T09:22:42;4.50;;;2.40;;
15132;SDS011;7667;51.232;17.110;2022-10-24T09:25:18;4.43;;;2.23;;
15132;SDS011;7667;51.232;17.110;2022-10-24T09:27:56;3.43;;;2.63;;
15132;SDS011;7667;51.232;17.110;2022-10-24T09:30:27;2.80;;;2.40;;
15132;SDS011;7667;51.232;17.110;2022-10-24T09:33:01;4.10;;;2.40;;
15132;SDS011;7667;51.232;17.110;2022-10-24T09:35:47;4.13;;;2.40;;
15132;SDS011;7667;51.232;17.110;2022-10-24T09:38:24;3.83;;;2.30;;
15132;SDS011;7667;51.232;17.110;2022-10-24T09:41:05;2.93;;;2.13;;
15132;SDS011;7667;51.232;17.110;2022-10-24T09:46:10;3.90;;;2.33;;
15132;SDS011;7667;51.232;17.110;2022-10-24T09:51:35;4.30;;;2.20;;
15132;SDS011;7667;51.232;17.110;2022-10-24T09:56:57;2.63;;;2.00;;
15132;SDS011;7667;51.232;17.110;2022-10-24T09:59:48;4.20;;;2.80;;
15132;SDS011;7667;51.232;17.110;2022-10-24T10:02:26;5.00;;;2.40;;
15132;SDS011;7667;51.232;17.110;2022-10-24T10:07:38;4.07;;;1.77;;
15132;SDS011;7667;51.232;17.110;2022-10-24T10:12:46;3.47;;;1.90;;
15132;SDS011;7667;51.232;17.110;2022-10-24T10:21:00;2.60;;;2.10;;
15132;SDS011;7667;51.232;17.110;2022-10-24T10:23:38;3.50;;;1.87;;
15132;SDS011;7667;51.232;17.110;2022-10-24T10:29:05;2.75;;;1.92;;
15132;SDS011;7667;51.232;17.110;2022-10-24T10:31:56;2.50;;;1.75;;
15132;SDS011;7667;51.232;17.110;2022-10-24T10:34:45;2.40;;;1.88;;
15132;SDS011;7667;51.232;17.110;2022-10-24T10:37:31;3.07;;;1.80;;
15132;SDS011;7667;51.232;17.110;2022-10-24T10:40:53;4.40;;;1.80;;
15132;SDS011;7667;51.232;17.110;2022-10-24T10:43:40;4.53;;;1.83;;
15132;SDS011;7667;51.232;17.110;2022-10-24T10:58:01;3.58;;;1.60;;
15132;SDS011;7667;51.232;17.110;2022-10-24T11:07:17;4.20;;;1.60;;
15132;SDS011;7667;51.232;17.110;2022-10-24T11:10:16;2.83;;;1.73;;
15132;SDS011;7667;51.232;17.110;2022-10-24T11:12:48;5.55;;;1.80;;
15132;SDS011;7667;51.232;17.110;2022-10-24T11:15:28;4.30;;;1.90;;
15132;SDS011;7667;51.232;17.110;2022-10-24T11:18:05;5.18;;;1.92;;
15132;SDS011;7667;51.232;17.110;2022-10-24T11:20:52;5.63;;;1.88;;
15132;SDS011;7667;51.232;17.110;2022-10-24T11:23:38;4.38;;;1.92;;
15132;SDS011;7667;51.232;17.110;2022-10-24T11:29:30;4.85;;;1.67;;
15132;SDS011;7667;51.232;17.110;2022-10-24T11:32:16;6.00;;;1.73;;
15132;SDS011;7667;51.232;17.110;2022-10-24T11:35:26;4.13;;;1.90;;
15132;SDS011;7667;51.232;17.110;2022-10-24T11:37:57;3.70;;;1.83;;
15132;SDS011;7667;51.232;17.110;2022-10-24T11:40:39;4.15;;;1.90;;
15132;SDS011;7667;51.232;17.110;2022-10-24T11:45:52;6.88;;;1.98;;
15132;SDS011;7667;51.232;17.110;2022-10-24T11:53:57;6.68;;;1.60;;
15132;SDS011;7667;51.232;17.110;2022-10-24T11:59:18;3.47;;;1.58;;
15132;SDS011;7667;51.232;17.110;2022-10-24T12:16:13;3.70;;;1.80;;
15132;SDS011;7667;51.232;17.110;2022-10-24T12:19:01;4.00;;;2.00;;
15132;SDS011;7667;51.232;17.110;2022-10-24T12:21:57;4.13;;;1.45;;
15132;SDS011;7667;51.232;17.110;2022-10-24T12:24:33;4.85;;;1.75;;
15132;SDS011;7667;51.232;17.110;2022-10-24T12:27:05;2.60;;;1.60;;
15132;SDS011;7667;51.232;17.110;2022-10-24T12:29:58;4.28;;;1.80;;
15132;SDS011;7667;51.232;17.110;2022-10-24T12:32:43;3.00;;;1.60;;
15132;SDS011;7667;51.232;17.110;2022-10-24T12:37:57;4.00;;;1.83;;
15132;SDS011;7667;51.232;17.110;2022-10-24T12:57:14;4.47;;;1.85;;
15132;SDS011;7667;51.232;17.110;2022-10-24T12:59:28;5.30;;;2.03;;
15132;SDS011;7667;51.232;17.110;2022-10-24T13:20:21;7.65;;;2.30;;
15132;SDS011;7667;51.232;17.110;2022-10-24T13:23:02;5.75;;;1.95;;
15132;SDS011;7667;51.232;17.110;2022-10-24T13:25:43;4.05;;;1.85;;
15132;SDS011;7667;51.232;17.110;2022-10-24T13:30:46;3.45;;;1.90;;
15132;SDS011;7667;51.232;17.110;2022-10-24T13:41:31;4.15;;;1.98;;
15132;SDS011;7667;51.232;17.110;2022-10-24T13:44:06;7.67;;;2.00;;
15132;SDS011;7667;51.232;17.110;2022-10-24T13:46:42;5.03;;;2.40;;
15132;SDS011;7667;51.232;17.110;2022-10-24T13:55:32;3.77;;;1.93;;
15132;SDS011;7667;51.232;17.110;2022-10-24T14:00:33;4.77;;;2.20;;
15132;SDS011;7667;51.232;17.110;2022-10-24T14:03:15;4.27;;;2.30;;
15132;SDS011;7667;51.232;17.110;2022-10-24T14:05:47;4.33;;;2.07;;
15132;SDS011;7667;51.232;17.110;2022-10-24T14:08:32;4.40;;;2.07;;
15132;SDS011;7667;51.232;17.110;2022-10-24T14:11:04;4.10;;;2.20;;
15132;SDS011;7667;51.232;17.110;2022-10-24T14:13:49;3.43;;;2.03;;
15132;SDS011;7667;51.232;17.110;2022-10-24T14:16:30;4.23;;;2.17;;
15132;SDS011;7667;51.232;17.110;2022-10-24T14:19:19;3.63;;;2.00;;
15132;SDS011;7667;51.232;17.110;2022-10-24T14:21:57;2.97;;;2.27;;
15132;SDS011;7667;51.232;17.110;2022-10-24T14:24:25;5.27;;;2.67;;
15132;SDS011;7667;51.232;17.110;2022-10-24T14:26:56;6.27;;;2.60;;
15132;SDS011;7667;51.232;17.110;2022-10-24T14:29:28;3.70;;;2.13;;
15132;SDS011;7667;51.232;17.110;2022-10-24T14:32:02;5.87;;;2.40;;
15132;SDS011;7667;51.232;17.110;2022-10-24T14:34:35;3.90;;;2.23;;
15132;SDS011;7667;51.232;17.110;2022-10-24T14:37:06;3.30;;;2.37;;
15132;SDS011;7667;51.232;17.110;2022-10-24T14:39:44;4.50;;;2.60;;
15132;SDS011;7667;51.232;17.110;2022-10-24T14:42:12;7.60;;;3.57;;
15132;SDS011;7667;51.232;17.110;2022-10-24T14:44:42;3.97;;;2.50;;
15132;SDS011;7667;51.232;17.110;2022-10-24T14:47:18;3.40;;;2.40;;
15132;SDS011;7667;51.232;17.110;2022-10-24T14:49:58;4.50;;;2.50;;
15132;SDS011;7667;51.232;17.110;2022-10-24T14:52:27;5.20;;;2.60;;
15132;SDS011;7667;51.232;17.110;2022-10-24T14:55:04;5.83;;;2.87;;
15132;SDS011;7667;51.232;17.110;2022-10-24T14:57:52;4.43;;;2.50;;
15132;SDS011;7667;51.232;17.110;2022-10-24T15:00:21;3.90;;;2.30;;
15132;SDS011;7667;51.232;17.110;2022-10-24T15:02:55;5.23;;;2.87;;
15132;SDS011;7667;51.232;17.110;2022-10-24T15:08:00;5.80;;;3.33;;
15132;SDS011;7667;51.232;17.110;2022-10-24T15:10:48;6.20;;;4.00;;
15132;SDS011;7667;51.232;17.110;2022-10-24T15:13:31;5.90;;;3.93;;
15132;SDS011;7667;51.232;17.110;2022-10-24T15:16:00;6.80;;;3.37;;
15132;SDS011;7667;51.232;17.110;2022-10-24T15:18:29;5.70;;;3.37;;
15132;SDS011;7667;51.232;17.110;2022-10-24T15:23:30;6.33;;;4.00;;
15132;SDS011;7667;51.232;17.110;2022-10-24T15:26:10;6.80;;;3.23;;
15132;SDS011;7667;51.232;17.110;2022-10-24T15:31:42;6.33;;;3.40;;
15132;SDS011;7667;51.232;17.110;2022-10-24T15:34:19;6.57;;;3.47;;
15132;SDS011;7667;51.232;17.110;2022-10-24T15:36:49;4.20;;;3.80;;
15132;SDS011;7667;51.232;17.110;2022-10-24T15:39:19;6.17;;;3.23;;
15132;SDS011;7667;51.232;17.110;2022-10-24T15:41:50;6.13;;;3.33;;
15132;SDS011;7667;51.232;17.110;2022-10-24T15:44:22;7.83;;;3.70;;
15132;SDS011;7667;51.232;17.110;2022-10-24T15:46:53;6.07;;;3.87;;
15132;SDS011;7667;51.232;17.110;2022-10-24T15:49:21;6.93;;;3.30;;
15132;SDS011;7667;51.232;17.110;2022-10-24T15:51:48;4.37;;;3.20;;
15132;SDS011;7667;51.232;17.110;2022-10-24T15:54:18;5.00;;;3.10;;
15132;SDS011;7667;51.232;17.110;2022-10-24T15:56:48;6.03;;;2.80;;
15132;SDS011;7667;51.232;17.110;2022-10-24T15:59:15;7.40;;;2.60;;
15132;SDS011;7667;51.232;17.110;2022-10-24T16:01:50;5.00;;;2.63;;
15132;SDS011;7667;51.232;17.110;2022-10-24T16:04:21;4.90;;;2.40;;
15132;SDS011;7667;51.232;17.110;2022-10-24T16:06:50;3.90;;;2.53;;
15132;SDS011;7667;51.232;17.110;2022-10-24T16:09:19;5.23;;;2.73;;
15132;SDS011;7667;51.232;17.110;2022-10-24T16:11:50;4.63;;;2.70;;
15132;SDS011;7667;51.232;17.110;2022-10-24T16:14:18;4.40;;;2.73;;
15132;SDS011;7667;51.232;17.110;2022-10-24T16:16:48;4.47;;;2.50;;
15132;SDS011;7667;51.232;17.110;2022-10-24T16:19:16;3.00;;;2.13;;
15132;SDS011;7667;51.232;17.110;2022-10-24T16:21:43;4.30;;;2.67;;
15132;SDS011;7667;51.232;17.110;2022-10-24T16:24:11;4.30;;;2.17;;
15132;SDS011;7667;51.232;17.110;2022-10-24T16:26:39;4.23;;;2.40;;
15132;SDS011;7667;51.232;17.110;2022-10-24T16:29:07;7.03;;;3.00;;
15132;SDS011;7667;51.232;17.110;2022-10-24T16:31:34;6.07;;;4.10;;
15132;SDS011;7667;51.232;17.110;2022-10-24T16:34:02;9.10;;;5.23;;
15132;SDS011;7667;51.232;17.110;2022-10-24T16:36:30;13.10;;;8.43;;
15132;SDS011;7667;51.232;17.110;2022-10-24T16:38:58;10.50;;;7.70;;
15132;SDS011;7667;51.232;17.110;2022-10-24T16:41:25;14.10;;;8.00;;
15132;SDS011;7667;51.232;17.110;2022-10-24T16:43:53;14.60;;;8.20;;
15132;SDS011;7667;51.232;17.110;2022-10-24T16:46:23;16.10;;;10.47;;
15132;SDS011;7667;51.232;17.110;2022-10-24T16:48:52;21.13;;;11.97;;
15132;SDS011;7667;51.232;17.110;2022-10-24T16:51:21;15.30;;;8.83;;
15132;SDS011;7667;51.232;17.110;2022-10-24T16:53:53;17.90;;;11.77;;
15132;SDS011;7667;51.232;17.110;2022-10-24T16:56:20;29.87;;;17.53;;
15132;SDS011;7667;51.232;17.110;2022-10-24T16:58:48;48.13;;;23.63;;
15132;SDS011;7667;51.232;17.110;2022-10-24T17:01:15;32.53;;;16.03;;
15132;SDS011;7667;51.232;17.110;2022-10-24T17:03:43;21.03;;;10.90;;
15132;SDS011;7667;51.232;17.110;2022-10-24T17:06:11;23.43;;;12.40;;
15132;SDS011;7667;51.232;17.110;2022-10-24T17:08:39;25.67;;;14.60;;
15132;SDS011;7667;51.232;17.110;2022-10-24T17:11:06;21.97;;;13.27;;
15132;SDS011;7667;51.232;17.110;2022-10-24T17:13:56;23.40;;;14.60;;
15132;SDS011;7667;51.232;17.110;2022-10-24T17:16:24;24.30;;;15.37;;
15132;SDS011;7667;51.232;17.110;2022-10-24T17:18:52;24.53;;;15.37;;
15132;SDS011;7667;51.232;17.110;2022-10-24T17:21:40;33.70;;;19.00;;
15132;SDS011;7667;51.232;17.110;2022-10-24T17:24:08;35.27;;;20.63;;
15132;SDS011;7667;51.232;17.110;2022-10-24T17:26:38;32.67;;;19.10;;
15132;SDS011;7667;51.232;17.110;2022-10-24T17:29:07;19.40;;;12.50;;
15132;SDS011;7667;51.232;17.110;2022-10-24T17:31:38;23.83;;;14.83;;
15132;SDS011;7667;51.232;17.110;2022-10-24T17:34:07;20.10;;;13.67;;
15132;SDS011;7667;51.232;17.110;2022-10-24T17:36:36;24.40;;;15.00;;
15132;SDS011;7667;51.232;17.110;2022-10-24T17:39:05;28.53;;;16.00;;
15132;SDS011;7667;51.232;17.110;2022-10-24T17:41:40;27.37;;;16.13;;
15132;SDS011;7667;51.232;17.110;2022-10-24T17:44:11;29.37;;;18.03;;
15132;SDS011;7667;51.232;17.110;2022-10-24T17:46:43;31.73;;;18.60;;
15132;SDS011;7667;51.232;17.110;2022-10-24T17:49:11;37.80;;;20.07;;
15132;SDS011;7667;51.232;17.110;2022-10-24T17:51:47;37.53;;;21.53;;
15132;SDS011;7667;51.232;17.110;2022-10-24T17:54:15;32.97;;;20.30;;
15132;SDS011;7667;51.232;17.110;2022-10-24T17:56:43;25.07;;;14.90;;
15132;SDS011;7667;51.232;17.110;2022-10-24T17:59:10;23.00;;;13.60;;
15132;SDS011;7667;51.232;17.110;2022-10-24T18:01:38;22.60;;;10.83;;
15132;SDS011;7667;51.232;17.110;2022-10-24T18:04:06;18.27;;;12.13;;
15132;SDS011;7667;51.232;17.110;2022-10-24T18:06:33;20.83;;;12.67;;
15132;SDS011;7667;51.232;17.110;2022-10-24T18:09:08;20.33;;;12.53;;